Robert E. Mcallister — WDC8669 — position and weather

sailwx.info

Track history (hours):
 
Tides and Currents Weather Stations Pressure Air Temp Water Temp Dewpoint Dewpoint Depression Visibility Wind Speed Wind Dir Waves Ship Positions

Robert E. Mcallister

Owner: McAllister Towing & Transportation, Staten Island, NY. More information available from US FCC via Universal Licensing System and Coast Guard Vessel Documentation Center.

Last reported at 2017-Feb-26 07:34 UTC. Time now 2017-Feb-26 07:38 UTC.
Position N 40°39' W 074°04'.

; draft 4.3 m.

Type: Tug. MMSI: 367091120.

Date/timePositionNaut miles runAvg speedWind from/ knotsBaromVisibWave heightAir tempDewpointWater temp
2017-Feb-26 07:34N 40°39' W 074°04'4 4.4
2017-Feb-26 06:33N 40°38' W 074°10'0 0.0
2017-Feb-26 05:34N 40°38' W 074°10'0 0.0
2017-Feb-26 04:33N 40°38' W 074°10'0 0.0
2017-Feb-26 03:33N 40°38' W 074°10'0 0.0
2017-Feb-26 02:33N 40°38' W 074°10'0 0.0
2017-Feb-26 01:33N 40°38' W 074°10'0 0.0
2017-Feb-26 00:33N 40°38' W 074°10'0 0.0
2017-Feb-25 23:33N 40°38' W 074°10'5 5.2
2017-Feb-25 22:34N 40°39' W 074°03'2 1.5
2017-Feb-25 21:34N 40°40' W 074°05'1 0.8
2017-Feb-25 20:34N 40°40' W 074°04'0 0.0
2017-Feb-25 19:33N 40°40' W 074°04'0 0.0
2017-Feb-25 18:34N 40°40' W 074°04'0 0.0
2017-Feb-25 17:33N 40°40' W 074°04'0 0.0
2017-Feb-25 16:34N 40°40' W 074°04'5 4.7
2017-Feb-25 15:34N 40°44' W 074°01'2 1.8
2017-Feb-25 14:33N 40°46' W 074°01'2 1.9
2017-Feb-25 13:33N 40°44' W 074°01'5 4.7
2017-Feb-25 12:33N 40°40' W 074°04'0 0.0
2017-Feb-25 11:34N 40°40' W 074°04'0 0.0
2017-Feb-25 10:34N 40°40' W 074°04'0 0.0
2017-Feb-25 09:33N 40°40' W 074°04'0 0.0
2017-Feb-25 08:34N 40°40' W 074°04'4 3.8
2017-Feb-25 07:31N 40°39' W 074°09'1 0.5
2017-Feb-25 06:34N 40°38' W 074°10'0 0.2
2017-Feb-25 05:33N 40°38' W 074°10'0 0.0
2017-Feb-25 04:33N 40°38' W 074°10'2 2.2
2017-Feb-25 03:33N 40°39' W 074°07'2 1.8
2017-Feb-25 02:34N 40°40' W 074°09'2 1.7
2017-Feb-25 01:33N 40°38' W 074°10'0 0.0
2017-Feb-25 00:33N 40°38' W 074°10'0 0.0
2017-Feb-24 23:33N 40°38' W 074°10'3 2.9
2017-Feb-24 22:33N 40°41' W 074°08'3 2.5
2017-Feb-24 21:33N 40°39' W 074°09'1 0.5
2017-Feb-24 20:33N 40°38' W 074°10'4 4.4
2017-Feb-24 19:33N 40°40' W 074°04'0 0.0
2017-Feb-24 18:33N 40°40' W 074°04'0 0.0
2017-Feb-24 17:33N 40°40' W 074°04'0 0.0
2017-Feb-24 16:33N 40°40' W 074°04'0 0.3
2017-Feb-24 15:33N 40°40' W 074°04'1 0.7
2017-Feb-24 14:33N 40°39' W 074°03'1 1.2
2017-Feb-24 13:33N 40°39' W 074°05'4 3.8
2017-Feb-24 12:33N 40°38' W 074°10'0 0.0
2017-Feb-24 11:33N 40°38' W 074°10'0 0.0
2017-Feb-24 10:33N 40°38' W 074°10'0 0.0
2017-Feb-24 09:33N 40°38' W 074°10'1 1.3
2017-Feb-24 08:33N 40°39' W 074°09'2 1.9
2017-Feb-24 07:33N 40°41' W 074°08'4 3.9
2017-Feb-24 06:33N 40°39' W 074°03'1 0.9
2017-Feb-24 05:33N 40°40' W 074°04'0 0.0
2017-Feb-24 04:33N 40°40' W 074°04'0 0.0
2017-Feb-24 03:33N 40°40' W 074°04'0 0.3
2017-Feb-24 02:34N 40°40' W 074°04'1 1.4
2017-Feb-24 01:33N 40°39' W 074°03'1 1.4
2017-Feb-24 00:33N 40°40' W 074°04'0 0.2
2017-Feb-23 23:33N 40°40' W 074°04'3 3.3
2017-Feb-23 22:33N 40°37' W 074°03'3 3.0
2017-Feb-23 21:34N 40°40' W 074°04'11 5.3
2017-Feb-23 19:30N 40°33' W 074°15'2 0.7
2017-Feb-23 17:09N 40°33' W 074°13'1 0.3
2017-Feb-23 14:28N 40°33' W 074°14'5 5.1
2017-Feb-23 13:33N 40°38' W 074°12'0 0.0
2017-Feb-23 12:33N 40°38' W 074°12'0 0.0
2017-Feb-23 11:34N 40°38' W 074°12'0 0.0
2017-Feb-23 10:32N 40°38' W 074°12'0 0.1
2017-Feb-23 09:32N 40°38' W 074°12'4 4.4
2017-Feb-23 08:33N 40°39' W 074°07'2 2.2
2017-Feb-23 07:34N 40°38' W 074°04'1 0.6
2017-Feb-23 06:34N 40°38' W 074°04'1 0.6
2017-Feb-23 05:33N 40°38' W 074°04'1 1.0
2017-Feb-23 04:33N 40°39' W 074°05'0 0.2
2017-Feb-23 03:34N 40°39' W 074°05'4 3.9
2017-Feb-23 02:33N 40°38' W 074°10'0 0.0
2017-Feb-23 01:33N 40°38' W 074°10'0 0.0
2017-Feb-23 00:33N 40°38' W 074°10'0 0.0
2017-Feb-22 23:34N 40°38' W 074°10'5 4.5
2017-Feb-22 22:34N 40°38' W 074°04'6 5.5
2017-Feb-22 21:33N 40°39' W 074°11'4 4.3
2017-Feb-22 20:33N 40°35' W 074°13'0 0.4
2017-Feb-22 19:19N 40°35' W 074°13'4 5.3
2017-Feb-22 18:33N 40°39' W 074°11'1 0.7
2017-Feb-22 17:33N 40°38' W 074°10'0 0.0
2017-Feb-22 16:33N 40°38' W 074°10'0 0.0
2017-Feb-22 15:33N 40°38' W 074°10'0 0.0
2017-Feb-22 14:33N 40°38' W 074°10'0 0.0
2017-Feb-22 13:33N 40°38' W 074°10'2 1.8
2017-Feb-22 12:33N 40°40' W 074°09'2 1.8
2017-Feb-22 11:34N 40°42' W 074°09'3 2.9
2017-Feb-22 10:33N 40°39' W 074°09'1 0.8
2017-Feb-22 09:33N 40°38' W 074°10'0 0.0
2017-Feb-22 08:33N 40°38' W 074°10'3 3.0
2017-Feb-22 07:33N 40°41' W 074°08'1 0.8
2017-Feb-22 06:34N 40°42' W 074°08'3 3.3
2017-Feb-22 05:33N 40°38' W 074°10'0 0.0
2017-Feb-22 04:33N 40°38' W 074°10'0 0.0
2017-Feb-22 03:33N 40°38' W 074°10'0 0.0
2017-Feb-22 02:34N 40°38' W 074°10'2 2.2
2017-Feb-22 01:33N 40°39' W 074°07'1 0.8
2017-Feb-22 00:29N 40°39' W 074°06'2 1.7
2017-Feb-21 23:34N 40°40' W 074°05'3 2.6
2017-Feb-21 22:33N 40°39' W 074°08'3 3.0
2017-Feb-21 21:33N 40°42' W 074°08'3 3.4
2017-Feb-21 20:33N 40°39' W 074°05'1 1.1
2017-Feb-21 19:34N 40°39' W 074°04'4 4.4
2017-Feb-21 18:33N 40°38' W 074°10'0 0.0
2017-Feb-21 17:33N 40°38' W 074°10'0 0.0
2017-Feb-21 16:33N 40°38' W 074°10'0 0.0
2017-Feb-21 15:33N 40°38' W 074°10'0 0.0
2017-Feb-21 14:33N 40°38' W 074°10'0 0.0
2017-Feb-21 13:33N 40°38' W 074°10'1 1.4
2017-Feb-21 12:33N 40°40' W 074°09'1 1.0
2017-Feb-21 11:33N 40°39' W 074°09'2 2.3
2017-Feb-21 10:33N 40°39' W 074°06'6 6.4
2017-Feb-21 09:33N 40°35' W 074°13'2 1.9
2017-Feb-21 08:33N 40°37' W 074°12'4 4.2
2017-Feb-21 07:33N 40°39' W 074°07'1 1.4
2017-Feb-21 06:34N 40°39' W 074°05'3 3.4
2017-Feb-21 05:33N 40°38' W 074°10'0 0.0
2017-Feb-21 04:33N 40°38' W 074°10'0 0.0
2017-Feb-21 03:33N 40°38' W 074°10'1 1.2
2017-Feb-21 02:33N 40°39' W 074°09'2 1.5
2017-Feb-21 01:33N 40°41' W 074°09'2 2.2
2017-Feb-21 00:33N 40°39' W 074°09'4 4.4
2017-Feb-20 23:33N 40°38' W 074°03'2 2.4
2017-Feb-20 22:33N 40°39' W 074°06'1 1.1
2017-Feb-20 21:33N 40°39' W 074°08'3 2.8
2017-Feb-20 20:33N 40°41' W 074°08'0 0.4
2017-Feb-20 19:33N 40°42' W 074°08'3 3.4
2017-Feb-20 18:33N 40°38' W 074°10'1 1.4
2017-Feb-20 17:33N 40°39' W 074°09'0 0.2
2017-Feb-20 16:33N 40°40' W 074°09'0 0.2
2017-Feb-20 15:33N 40°40' W 074°09'0 0.0
2017-Feb-20 14:33N 40°40' W 074°09'0 0.0
2017-Feb-20 13:33N 40°40' W 074°09'0 0.0
2017-Feb-20 12:33N 40°40' W 074°09'2 2.1
2017-Feb-20 11:33N 40°42' W 074°08'2 2.0
2017-Feb-20 10:33N 40°40' W 074°09'1 1.5
2017-Feb-20 09:33N 40°38' W 074°10'2 2.1
2017-Feb-20 08:33N 40°40' W 074°08'2 2.0
2017-Feb-20 07:33N 40°38' W 074°10'0 0.2
2017-Feb-20 06:33N 40°38' W 074°10'0 0.0
2017-Feb-20 05:33N 40°38' W 074°10'0 0.0
2017-Feb-20 04:33N 40°38' W 074°10'0 0.0
2017-Feb-20 03:33N 40°38' W 074°10'0 0.0
2017-Feb-20 02:33N 40°38' W 074°10'0 0.0
2017-Feb-20 01:33N 40°38' W 074°10'0 0.0
2017-Feb-20 00:32N 40°38' W 074°10'0 0.0
2017-Feb-19 23:33N 40°38' W 074°10'0 0.0
2017-Feb-19 22:33N 40°38' W 074°10'0 0.0
2017-Feb-19 21:33N 40°38' W 074°10'0 0.0
2017-Feb-19 20:33N 40°38' W 074°10'0 0.0
2017-Feb-19 19:33N 40°38' W 074°10'2 1.6
2017-Feb-19 18:33N 40°40' W 074°09'3 2.9
2017-Feb-19 17:33N 40°39' W 074°05'3 2.8
2017-Feb-19 16:33N 40°38' W 074°09'1 0.9
2017-Feb-19 15:33N 40°38' W 074°10'0 0.0
2017-Feb-19 14:33N 40°38' W 074°10'0 0.0
2017-Feb-19 13:33N 40°38' W 074°10'0 0.0
2017-Feb-19 12:33N 40°38' W 074°10'0 0.0
2017-Feb-19 11:33N 40°38' W 074°10'1 0.6
2017-Feb-19 10:33N 40°38' W 074°09'9 9.1
2017-Feb-19 09:33N 40°42' W 073°58'0 0.4
2017-Feb-19 08:33N 40°42' W 073°59'5 4.5
2017-Feb-19 07:33N 40°39' W 074°03'5 5.1
2017-Feb-19 06:33N 40°38' W 074°10'0 0.0
2017-Feb-19 05:33N 40°38' W 074°10'0 0.0
2017-Feb-19 04:33N 40°38' W 074°10'0 0.0
2017-Feb-19 03:33N 40°38' W 074°10'0 0.0
2017-Feb-19 02:33N 40°38' W 074°10'0 0.1
2017-Feb-19 01:33N 40°38' W 074°10'4 3.5
2017-Feb-19 00:33N 40°39' W 074°05'1 1.4
2017-Feb-18 23:33N 40°39' W 074°07'2 2.3
2017-Feb-18 22:33N 40°38' W 074°10'0 0.0
2017-Feb-18 21:33N 40°38' W 074°10'0 0.0
2017-Feb-18 20:33N 40°38' W 074°10'0 0.0
2017-Feb-18 19:33N 40°38' W 074°10'0 0.0
2017-Feb-18 18:33N 40°38' W 074°10'0 0.0
2017-Feb-18 17:33N 40°38' W 074°10'0 0.0
2017-Feb-18 16:33N 40°38' W 074°10'6 5.8
2017-Feb-18 15:33N 40°40' W 074°03'4 3.8
2017-Feb-18 14:33N 40°42' W 073°58'3 3.0
2017-Feb-18 13:33N 40°41' W 074°02'3 2.5
2017-Feb-18 12:33N 40°39' W 074°03'4 4.4
2017-Feb-18 11:33N 40°35' W 074°02'5 4.3
2017-Feb-18 10:31N 40°31' W 073°59'2 2.3
2017-Feb-18 09:33N 40°30' W 073°56'9 9.3
2017-Feb-18 08:33N 40°37' W 074°03'5 5.2
2017-Feb-18 07:33N 40°38' W 074°10'4 3.5
2017-Feb-18 06:33N 40°39' W 074°05'2 1.6
2017-Feb-18 05:33N 40°38' W 074°03'1 0.9
2017-Feb-18 04:33N 40°38' W 074°04'4 3.9
2017-Feb-18 03:33N 40°39' W 074°09'1 0.6
2017-Feb-18 02:33N 40°40' W 074°09'1 1.4
2017-Feb-18 01:33N 40°38' W 074°10'0 0.0
2017-Feb-18 00:33N 40°38' W 074°10'0 0.1
2017-Feb-17 23:33N 40°38' W 074°10'4 4.4
2017-Feb-17 22:33N 40°40' W 074°04'0 0.4
2017-Feb-17 21:33N 40°40' W 074°05'4 4.1
2017-Feb-17 20:31N 40°38' W 074°10'0 0.0
2017-Feb-17 19:32N 40°38' W 074°10'0 0.0
2017-Feb-17 18:33N 40°38' W 074°10'3 2.7
2017-Feb-17 17:32N 40°41' W 074°09'2 2.5
2017-Feb-17 16:33N 40°39' W 074°09'1 0.7
2017-Feb-17 15:33N 40°38' W 074°10'1 0.8
2017-Feb-17 14:34N 40°39' W 074°09'8 7.6
2017-Feb-17 13:33N 40°42' W 074°00'1 0.8
2017-Feb-17 12:34N 40°42' W 073°59'5 4.6
2017-Feb-17 11:33N 40°40' W 074°04'0 0.0
2017-Feb-17 10:33N 40°40' W 074°04'0 0.0
2017-Feb-17 09:33N 40°40' W 074°04'3 2.6
2017-Feb-17 08:34N 40°39' W 074°07'3 3.0
2017-Feb-17 07:34N 40°39' W 074°11'1 1.0
2017-Feb-17 06:33N 40°38' W 074°12'0 0.0
2017-Feb-17 05:33N 40°38' W 074°12'4 4.1
2017-Feb-17 04:33N 40°39' W 074°07'4 3.6
2017-Feb-17 03:33N 40°37' W 074°03'3 3.5
2017-Feb-17 02:34N 40°40' W 074°04'0 0.1
2017-Feb-17 01:33N 40°40' W 074°04'3 3.2
2017-Feb-17 00:33N 40°39' W 074°08'2 2.3
2017-Feb-16 23:34N 40°39' W 074°11'1 1.0
2017-Feb-16 22:33N 40°38' W 074°10'0 0.0
2017-Feb-16 21:33N 40°38' W 074°10'0 0.0
2017-Feb-16 20:33N 40°38' W 074°10'1 1.4
2017-Feb-16 19:33N 40°40' W 074°09'1 1.2
2017-Feb-16 18:33N 40°39' W 074°08'5 4.5
2017-Feb-16 17:33N 40°37' W 074°03'3 3.3
2017-Feb-16 16:33N 40°39' W 074°05'0 0.3
2017-Feb-16 15:33N 40°39' W 074°06'3 3.1
2017-Feb-16 14:33N 40°38' W 074°10'1 0.7
2017-Feb-16 13:31N 40°39' W 074°09'1 0.7
2017-Feb-16 12:33N 40°39' W 074°09'2 2.2
2017-Feb-16 11:32N 40°39' W 074°11'3 3.1
2017-Feb-16 10:33N 40°39' W 074°07'4 3.6
2017-Feb-16 09:32N 40°37' W 074°03'6 5.6
2017-Feb-16 08:33N 40°38' W 074°10'  
Track history (hours):
 
Tides and Currents Weather Stations Pressure Air Temp Water Temp Dewpoint Dewpoint Depression Visibility Wind Speed Wind Dir Waves Ship Positions

Robert E. Mcallister

Owner: McAllister Towing & Transportation, Staten Island, NY. More information available from US FCC via Universal Licensing System and Coast Guard Vessel Documentation Center.

Last reported at 2017-Feb-26 07:34 UTC. Time now 2017-Feb-26 07:38 UTC.
Position N 40°39' W 074°04'.

; draft 4.3 m.

Type: Tug. MMSI: 367091120.

Date/timePositionNaut miles runAvg speedWind from/ knotsBaromVisibWave heightAir tempDewpointWater temp
2017-Feb-26 07:34N 40°39' W 074°04'4 4.4
2017-Feb-26 06:33N 40°38' W 074°10'0 0.0
2017-Feb-26 05:34N 40°38' W 074°10'0 0.0
2017-Feb-26 04:33N 40°38' W 074°10'0 0.0
2017-Feb-26 03:33N 40°38' W 074°10'0 0.0
2017-Feb-26 02:33N 40°38' W 074°10'0 0.0
2017-Feb-26 01:33N 40°38' W 074°10'0 0.0
2017-Feb-26 00:33N 40°38' W 074°10'0 0.0
2017-Feb-25 23:33N 40°38' W 074°10'5 5.2
2017-Feb-25 22:34N 40°39' W 074°03'2 1.5
2017-Feb-25 21:34N 40°40' W 074°05'1 0.8
2017-Feb-25 20:34N 40°40' W 074°04'0 0.0
2017-Feb-25 19:33N 40°40' W 074°04'0 0.0
2017-Feb-25 18:34N 40°40' W 074°04'0 0.0
2017-Feb-25 17:33N 40°40' W 074°04'0 0.0
2017-Feb-25 16:34N 40°40' W 074°04'5 4.7
2017-Feb-25 15:34N 40°44' W 074°01'2 1.8
2017-Feb-25 14:33N 40°46' W 074°01'2 1.9
2017-Feb-25 13:33N 40°44' W 074°01'5 4.7
2017-Feb-25 12:33N 40°40' W 074°04'0 0.0
2017-Feb-25 11:34N 40°40' W 074°04'0 0.0
2017-Feb-25 10:34N 40°40' W 074°04'0 0.0
2017-Feb-25 09:33N 40°40' W 074°04'0 0.0
2017-Feb-25 08:34N 40°40' W 074°04'4 3.8
2017-Feb-25 07:31N 40°39' W 074°09'1 0.5
2017-Feb-25 06:34N 40°38' W 074°10'0 0.2
2017-Feb-25 05:33N 40°38' W 074°10'0 0.0
2017-Feb-25 04:33N 40°38' W 074°10'2 2.2
2017-Feb-25 03:33N 40°39' W 074°07'2 1.8
2017-Feb-25 02:34N 40°40' W 074°09'2 1.7
2017-Feb-25 01:33N 40°38' W 074°10'0 0.0
2017-Feb-25 00:33N 40°38' W 074°10'0 0.0
2017-Feb-24 23:33N 40°38' W 074°10'3 2.9
2017-Feb-24 22:33N 40°41' W 074°08'3 2.5
2017-Feb-24 21:33N 40°39' W 074°09'1 0.5
2017-Feb-24 20:33N 40°38' W 074°10'4 4.4
2017-Feb-24 19:33N 40°40' W 074°04'0 0.0
2017-Feb-24 18:33N 40°40' W 074°04'0 0.0
2017-Feb-24 17:33N 40°40' W 074°04'0 0.0
2017-Feb-24 16:33N 40°40' W 074°04'0 0.3
2017-Feb-24 15:33N 40°40' W 074°04'1 0.7
2017-Feb-24 14:33N 40°39' W 074°03'1 1.2
2017-Feb-24 13:33N 40°39' W 074°05'4 3.8
2017-Feb-24 12:33N 40°38' W 074°10'0 0.0
2017-Feb-24 11:33N 40°38' W 074°10'0 0.0
2017-Feb-24 10:33N 40°38' W 074°10'0 0.0
2017-Feb-24 09:33N 40°38' W 074°10'1 1.3
2017-Feb-24 08:33N 40°39' W 074°09'2 1.9
2017-Feb-24 07:33N 40°41' W 074°08'4 3.9
2017-Feb-24 06:33N 40°39' W 074°03'1 0.9
2017-Feb-24 05:33N 40°40' W 074°04'0 0.0
2017-Feb-24 04:33N 40°40' W 074°04'0 0.0
2017-Feb-24 03:33N 40°40' W 074°04'0 0.3
2017-Feb-24 02:34N 40°40' W 074°04'1 1.4
2017-Feb-24 01:33N 40°39' W 074°03'1 1.4
2017-Feb-24 00:33N 40°40' W 074°04'0 0.2
2017-Feb-23 23:33N 40°40' W 074°04'3 3.3
2017-Feb-23 22:33N 40°37' W 074°03'3 3.0
2017-Feb-23 21:34N 40°40' W 074°04'11 5.3
2017-Feb-23 19:30N 40°33' W 074°15'2 0.7
2017-Feb-23 17:09N 40°33' W 074°13'1 0.3
2017-Feb-23 14:28N 40°33' W 074°14'5 5.1
2017-Feb-23 13:33N 40°38' W 074°12'0 0.0
2017-Feb-23 12:33N 40°38' W 074°12'0 0.0
2017-Feb-23 11:34N 40°38' W 074°12'0 0.0
2017-Feb-23 10:32N 40°38' W 074°12'0 0.1
2017-Feb-23 09:32N 40°38' W 074°12'4 4.4
2017-Feb-23 08:33N 40°39' W 074°07'2 2.2
2017-Feb-23 07:34N 40°38' W 074°04'1 0.6
2017-Feb-23 06:34N 40°38' W 074°04'1 0.6
2017-Feb-23 05:33N 40°38' W 074°04'1 1.0
2017-Feb-23 04:33N 40°39' W 074°05'0 0.2
2017-Feb-23 03:34N 40°39' W 074°05'4 3.9
2017-Feb-23 02:33N 40°38' W 074°10'0 0.0
2017-Feb-23 01:33N 40°38' W 074°10'0 0.0
2017-Feb-23 00:33N 40°38' W 074°10'0 0.0
2017-Feb-22 23:34N 40°38' W 074°10'5 4.5
2017-Feb-22 22:34N 40°38' W 074°04'6 5.5
2017-Feb-22 21:33N 40°39' W 074°11'4 4.3
2017-Feb-22 20:33N 40°35' W 074°13'0 0.4
2017-Feb-22 19:19N 40°35' W 074°13'4 5.3
2017-Feb-22 18:33N 40°39' W 074°11'1 0.7
2017-Feb-22 17:33N 40°38' W 074°10'0 0.0
2017-Feb-22 16:33N 40°38' W 074°10'0 0.0
2017-Feb-22 15:33N 40°38' W 074°10'0 0.0
2017-Feb-22 14:33N 40°38' W 074°10'0 0.0
2017-Feb-22 13:33N 40°38' W 074°10'2 1.8
2017-Feb-22 12:33N 40°40' W 074°09'2 1.8
2017-Feb-22 11:34N 40°42' W 074°09'3 2.9
2017-Feb-22 10:33N 40°39' W 074°09'1 0.8
2017-Feb-22 09:33N 40°38' W 074°10'0 0.0
2017-Feb-22 08:33N 40°38' W 074°10'3 3.0
2017-Feb-22 07:33N 40°41' W 074°08'1 0.8
2017-Feb-22 06:34N 40°42' W 074°08'3 3.3
2017-Feb-22 05:33N 40°38' W 074°10'0 0.0
2017-Feb-22 04:33N 40°38' W 074°10'0 0.0
2017-Feb-22 03:33N 40°38' W 074°10'0 0.0
2017-Feb-22 02:34N 40°38' W 074°10'2 2.2
2017-Feb-22 01:33N 40°39' W 074°07'1 0.8
2017-Feb-22 00:29N 40°39' W 074°06'2 1.7
2017-Feb-21 23:34N 40°40' W 074°05'3 2.6
2017-Feb-21 22:33N 40°39' W 074°08'3 3.0
2017-Feb-21 21:33N 40°42' W 074°08'3 3.4
2017-Feb-21 20:33N 40°39' W 074°05'1 1.1
2017-Feb-21 19:34N 40°39' W 074°04'4 4.4
2017-Feb-21 18:33N 40°38' W 074°10'0 0.0
2017-Feb-21 17:33N 40°38' W 074°10'0 0.0
2017-Feb-21 16:33N 40°38' W 074°10'0 0.0
2017-Feb-21 15:33N 40°38' W 074°10'0 0.0
2017-Feb-21 14:33N 40°38' W 074°10'0 0.0
2017-Feb-21 13:33N 40°38' W 074°10'1 1.4
2017-Feb-21 12:33N 40°40' W 074°09'1 1.0
2017-Feb-21 11:33N 40°39' W 074°09'2 2.3
2017-Feb-21 10:33N 40°39' W 074°06'6 6.4
2017-Feb-21 09:33N 40°35' W 074°13'2 1.9
2017-Feb-21 08:33N 40°37' W 074°12'4 4.2
2017-Feb-21 07:33N 40°39' W 074°07'1 1.4
2017-Feb-21 06:34N 40°39' W 074°05'3 3.4
2017-Feb-21 05:33N 40°38' W 074°10'0 0.0
2017-Feb-21 04:33N 40°38' W 074°10'0 0.0
2017-Feb-21 03:33N 40°38' W 074°10'1 1.2
2017-Feb-21 02:33N 40°39' W 074°09'2 1.5
2017-Feb-21 01:33N 40°41' W 074°09'2 2.2
2017-Feb-21 00:33N 40°39' W 074°09'4 4.4
2017-Feb-20 23:33N 40°38' W 074°03'2 2.4
2017-Feb-20 22:33N 40°39' W 074°06'1 1.1
2017-Feb-20 21:33N 40°39' W 074°08'3 2.8
2017-Feb-20 20:33N 40°41' W 074°08'0 0.4
2017-Feb-20 19:33N 40°42' W 074°08'3 3.4
2017-Feb-20 18:33N 40°38' W 074°10'1 1.4
2017-Feb-20 17:33N 40°39' W 074°09'0 0.2
2017-Feb-20 16:33N 40°40' W 074°09'0 0.2
2017-Feb-20 15:33N 40°40' W 074°09'0 0.0
2017-Feb-20 14:33N 40°40' W 074°09'0 0.0
2017-Feb-20 13:33N 40°40' W 074°09'0 0.0
2017-Feb-20 12:33N 40°40' W 074°09'2 2.1
2017-Feb-20 11:33N 40°42' W 074°08'2 2.0
2017-Feb-20 10:33N 40°40' W 074°09'1 1.5
2017-Feb-20 09:33N 40°38' W 074°10'2 2.1
2017-Feb-20 08:33N 40°40' W 074°08'2 2.0
2017-Feb-20 07:33N 40°38' W 074°10'0 0.2
2017-Feb-20 06:33N 40°38' W 074°10'0 0.0
2017-Feb-20 05:33N 40°38' W 074°10'0 0.0
2017-Feb-20 04:33N 40°38' W 074°10'0 0.0
2017-Feb-20 03:33N 40°38' W 074°10'0 0.0
2017-Feb-20 02:33N 40°38' W 074°10'0 0.0
2017-Feb-20 01:33N 40°38' W 074°10'0 0.0
2017-Feb-20 00:32N 40°38' W 074°10'0 0.0
2017-Feb-19 23:33N 40°38' W 074°10'0 0.0
2017-Feb-19 22:33N 40°38' W 074°10'0 0.0
2017-Feb-19 21:33N 40°38' W 074°10'0 0.0
2017-Feb-19 20:33N 40°38' W 074°10'0 0.0
2017-Feb-19 19:33N 40°38' W 074°10'2 1.6
2017-Feb-19 18:33N 40°40' W 074°09'3 2.9
2017-Feb-19 17:33N 40°39' W 074°05'3 2.8
2017-Feb-19 16:33N 40°38' W 074°09'1 0.9
2017-Feb-19 15:33N 40°38' W 074°10'0 0.0
2017-Feb-19 14:33N 40°38' W 074°10'0 0.0
2017-Feb-19 13:33N 40°38' W 074°10'0 0.0
2017-Feb-19 12:33N 40°38' W 074°10'0 0.0
2017-Feb-19 11:33N 40°38' W 074°10'1 0.6
2017-Feb-19 10:33N 40°38' W 074°09'9 9.1
2017-Feb-19 09:33N 40°42' W 073°58'0 0.4
2017-Feb-19 08:33N 40°42' W 073°59'5 4.5
2017-Feb-19 07:33N 40°39' W 074°03'5 5.1
2017-Feb-19 06:33N 40°38' W 074°10'0 0.0
2017-Feb-19 05:33N 40°38' W 074°10'0 0.0
2017-Feb-19 04:33N 40°38' W 074°10'0 0.0
2017-Feb-19 03:33N 40°38' W 074°10'0 0.0
2017-Feb-19 02:33N 40°38' W 074°10'0 0.1
2017-Feb-19 01:33N 40°38' W 074°10'4 3.5
2017-Feb-19 00:33N 40°39' W 074°05'1 1.4
2017-Feb-18 23:33N 40°39' W 074°07'2 2.3
2017-Feb-18 22:33N 40°38' W 074°10'0 0.0
2017-Feb-18 21:33N 40°38' W 074°10'0 0.0
2017-Feb-18 20:33N 40°38' W 074°10'0 0.0
2017-Feb-18 19:33N 40°38' W 074°10'0 0.0
2017-Feb-18 18:33N 40°38' W 074°10'0 0.0
2017-Feb-18 17:33N 40°38' W 074°10'0 0.0
2017-Feb-18 16:33N 40°38' W 074°10'6 5.8
2017-Feb-18 15:33N 40°40' W 074°03'4 3.8
2017-Feb-18 14:33N 40°42' W 073°58'3 3.0
2017-Feb-18 13:33N 40°41' W 074°02'3 2.5
2017-Feb-18 12:33N 40°39' W 074°03'4 4.4
2017-Feb-18 11:33N 40°35' W 074°02'5 4.3
2017-Feb-18 10:31N 40°31' W 073°59'2 2.3
2017-Feb-18 09:33N 40°30' W 073°56'9 9.3
2017-Feb-18 08:33N 40°37' W 074°03'5 5.2
2017-Feb-18 07:33N 40°38' W 074°10'4 3.5
2017-Feb-18 06:33N 40°39' W 074°05'2 1.6
2017-Feb-18 05:33N 40°38' W 074°03'1 0.9
2017-Feb-18 04:33N 40°38' W 074°04'4 3.9
2017-Feb-18 03:33N 40°39' W 074°09'1 0.6
2017-Feb-18 02:33N 40°40' W 074°09'1 1.4
2017-Feb-18 01:33N 40°38' W 074°10'0 0.0
2017-Feb-18 00:33N 40°38' W 074°10'0 0.1
2017-Feb-17 23:33N 40°38' W 074°10'4 4.4
2017-Feb-17 22:33N 40°40' W 074°04'0 0.4
2017-Feb-17 21:33N 40°40' W 074°05'4 4.1
2017-Feb-17 20:31N 40°38' W 074°10'0 0.0
2017-Feb-17 19:32N 40°38' W 074°10'0 0.0
2017-Feb-17 18:33N 40°38' W 074°10'3 2.7
2017-Feb-17 17:32N 40°41' W 074°09'2 2.5
2017-Feb-17 16:33N 40°39' W 074°09'1 0.7
2017-Feb-17 15:33N 40°38' W 074°10'1 0.8
2017-Feb-17 14:34N 40°39' W 074°09'8 7.6
2017-Feb-17 13:33N 40°42' W 074°00'1 0.8
2017-Feb-17 12:34N 40°42' W 073°59'5 4.6
2017-Feb-17 11:33N 40°40' W 074°04'0 0.0
2017-Feb-17 10:33N 40°40' W 074°04'0 0.0
2017-Feb-17 09:33N 40°40' W 074°04'3 2.6
2017-Feb-17 08:34N 40°39' W 074°07'3 3.0
2017-Feb-17 07:34N 40°39' W 074°11'1 1.0
2017-Feb-17 06:33N 40°38' W 074°12'0 0.0
2017-Feb-17 05:33N 40°38' W 074°12'4 4.1
2017-Feb-17 04:33N 40°39' W 074°07'4 3.6
2017-Feb-17 03:33N 40°37' W 074°03'3 3.5
2017-Feb-17 02:34N 40°40' W 074°04'0 0.1
2017-Feb-17 01:33N 40°40' W 074°04'3 3.2
2017-Feb-17 00:33N 40°39' W 074°08'2 2.3
2017-Feb-16 23:34N 40°39' W 074°11'1 1.0
2017-Feb-16 22:33N 40°38' W 074°10'0 0.0
2017-Feb-16 21:33N 40°38' W 074°10'0 0.0
2017-Feb-16 20:33N 40°38' W 074°10'1 1.4
2017-Feb-16 19:33N 40°40' W 074°09'1 1.2
2017-Feb-16 18:33N 40°39' W 074°08'5 4.5
2017-Feb-16 17:33N 40°37' W 074°03'3 3.3
2017-Feb-16 16:33N 40°39' W 074°05'0 0.3
2017-Feb-16 15:33N 40°39' W 074°06'3 3.1
2017-Feb-16 14:33N 40°38' W 074°10'1 0.7
2017-Feb-16 13:31N 40°39' W 074°09'1 0.7
2017-Feb-16 12:33N 40°39' W 074°09'2 2.2
2017-Feb-16 11:32N 40°39' W 074°11'3 3.1
2017-Feb-16 10:33N 40°39' W 074°07'4 3.6
2017-Feb-16 09:32N 40°37' W 074°03'6 5.6
2017-Feb-16 08:33N 40°38' W 074°10'  

Dump ship's entire track history